Nabq, Egypt
Current Conditions -  °F | °C
As of 4:00 AM on Monday 24 Nov 2014 (Local Time) from HESH Reporting Station
Clear Clear  
Wind Chill: 66°   Ceiling: Unl
Heat Index: 66°   Visibility: 6mi
Dew Point: 45°   Wind: 20mph
Humidity: 46%   Direction: 360°N
Pressure: 29.88"   Gusts: NA
Location:  28.07°N, 34.42°E
Report Text: HESH 240200Z 36017KT CAVOK 19/07 Q1012 NOSIG
Loading
Personal Weather Stations






























Interactive Weather Map New forecast layout! Learn more

10-Day Weather Forecast

Advertisements
Track Severe Weather on mobile